sensor_id;sensor_type;location;lat;lon;timestamp;temperature;humidity
79315;DHT22;68777;44.804;0.552;2023-04-06T00:00:13;12.17;63.05
79315;DHT22;68777;44.804;0.552;2023-04-06T00:02:39;12.23;63.16
79315;DHT22;68777;44.804;0.552;2023-04-06T00:05:05;12.13;63.18
79315;DHT22;68777;44.804;0.552;2023-04-06T00:07:31;12.10;63.14
79315;DHT22;68777;44.804;0.552;2023-04-06T00:09:58;11.99;63.25
79315;DHT22;68777;44.804;0.552;2023-04-06T00:12:24;11.97;63.43
79315;DHT22;68777;44.804;0.552;2023-04-06T00:14:49;11.92;63.51
79315;DHT22;68777;44.804;0.552;2023-04-06T00:17:15;11.90;63.32
79315;DHT22;68777;44.804;0.552;2023-04-06T00:19:40;11.90;63.54
79315;DHT22;68777;44.804;0.552;2023-04-06T00:22:06;12.04;63.31
79315;DHT22;68777;44.804;0.552;2023-04-06T00:24:32;12.07;62.92
79315;DHT22;68777;44.804;0.552;2023-04-06T00:26:57;12.14;62.26
79315;DHT22;68777;44.804;0.552;2023-04-06T00:29:22;12.12;62.29
79315;DHT22;68777;44.804;0.552;2023-04-06T00:31:48;12.07;62.35
79315;DHT22;68777;44.804;0.552;2023-04-06T00:34:14;11.99;62.50
79315;DHT22;68777;44.804;0.552;2023-04-06T00:36:41;11.92;62.57
79315;DHT22;68777;44.804;0.552;2023-04-06T00:39:06;11.97;62.65
79315;DHT22;68777;44.804;0.552;2023-04-06T00:41:32;11.92;62.73
79315;DHT22;68777;44.804;0.552;2023-04-06T00:43:57;12.00;62.58
79315;DHT22;68777;44.804;0.552;2023-04-06T00:46:23;12.06;62.17
79315;DHT22;68777;44.804;0.552;2023-04-06T00:48:49;12.10;62.11
79315;DHT22;68777;44.804;0.552;2023-04-06T00:51:14;12.16;62.20
79315;DHT22;68777;44.804;0.552;2023-04-06T00:53:40;12.10;62.27
79315;DHT22;68777;44.804;0.552;2023-04-06T00:56:05;12.12;61.93
79315;DHT22;68777;44.804;0.552;2023-04-06T00:58:31;12.02;62.27
79315;DHT22;68777;44.804;0.552;2023-04-06T01:00:57;12.02;62.06
79315;DHT22;68777;44.804;0.552;2023-04-06T01:03:23;11.87;62.28
79315;DHT22;68777;44.804;0.552;2023-04-06T01:05:49;11.80;62.73
79315;DHT22;68777;44.804;0.552;2023-04-06T01:08:14;11.83;62.54
79315;DHT22;68777;44.804;0.552;2023-04-06T01:10:40;11.72;62.85
79315;DHT22;68777;44.804;0.552;2023-04-06T01:13:05;11.68;63.06
79315;DHT22;68777;44.804;0.552;2023-04-06T01:15:32;11.70;62.92
79315;DHT22;68777;44.804;0.552;2023-04-06T01:17:58;11.66;62.95
79315;DHT22;68777;44.804;0.552;2023-04-06T01:20:24;11.65;62.88
79315;DHT22;68777;44.804;0.552;2023-04-06T01:22:49;11.63;62.97
79315;DHT22;68777;44.804;0.552;2023-04-06T01:25:15;11.65;63.08
79315;DHT22;68777;44.804;0.552;2023-04-06T01:27:40;11.70;62.94
79315;DHT22;68777;44.804;0.552;2023-04-06T01:30:06;11.78;62.61
79315;DHT22;68777;44.804;0.552;2023-04-06T01:32:32;11.80;62.35
79315;DHT22;68777;44.804;0.552;2023-04-06T01:34:58;11.85;62.41
79315;DHT22;68777;44.804;0.552;2023-04-06T01:37:23;11.85;62.52
79315;DHT22;68777;44.804;0.552;2023-04-06T01:39:50;11.76;62.64
79315;DHT22;68777;44.804;0.552;2023-04-06T01:42:15;11.75;62.63
79315;DHT22;68777;44.804;0.552;2023-04-06T01:44:41;11.63;63.15
79315;DHT22;68777;44.804;0.552;2023-04-06T01:47:06;11.55;63.57
79315;DHT22;68777;44.804;0.552;2023-04-06T01:49:32;11.57;63.70
79315;DHT22;68777;44.804;0.552;2023-04-06T01:51:57;11.46;63.89
79315;DHT22;68777;44.804;0.552;2023-04-06T01:54:23;11.52;64.13
79315;DHT22;68777;44.804;0.552;2023-04-06T01:56:49;11.58;64.09
79315;DHT22;68777;44.804;0.552;2023-04-06T01:59:16;11.62;63.96
79315;DHT22;68777;44.804;0.552;2023-04-06T02:01:41;11.75;63.46
79315;DHT22;68777;44.804;0.552;2023-04-06T02:04:07;11.68;63.69
79315;DHT22;68777;44.804;0.552;2023-04-06T02:06:32;11.59;64.21
79315;DHT22;68777;44.804;0.552;2023-04-06T02:08:58;11.68;63.74
79315;DHT22;68777;44.804;0.552;2023-04-06T02:11:23;11.78;64.23
79315;DHT22;68777;44.804;0.552;2023-04-06T02:13:48;11.76;64.18
79315;DHT22;68777;44.804;0.552;2023-04-06T02:16:14;11.83;64.62
79315;DHT22;68777;44.804;0.552;2023-04-06T02:18:40;11.93;63.89
79315;DHT22;68777;44.804;0.552;2023-04-06T02:21:06;11.93;63.59
79315;DHT22;68777;44.804;0.552;2023-04-06T02:23:31;11.96;63.29
79315;DHT22;68777;44.804;0.552;2023-04-06T02:25:57;11.90;63.67
79315;DHT22;68777;44.804;0.552;2023-04-06T02:28:22;11.89;63.96
79315;DHT22;68777;44.804;0.552;2023-04-06T02:30:47;11.78;64.11
79315;DHT22;68777;44.804;0.552;2023-04-06T02:33:13;11.69;64.12
79315;DHT22;68777;44.804;0.552;2023-04-06T02:35:38;11.70;63.68
79315;DHT22;68777;44.804;0.552;2023-04-06T02:38:04;11.73;64.02
79315;DHT22;68777;44.804;0.552;2023-04-06T02:40:29;11.72;64.92
79315;DHT22;68777;44.804;0.552;2023-04-06T02:42:55;11.78;64.61
79315;DHT22;68777;44.804;0.552;2023-04-06T02:45:20;11.62;65.16
79315;DHT22;68777;44.804;0.552;2023-04-06T02:47:46;11.62;65.24
79315;DHT22;68777;44.804;0.552;2023-04-06T02:50:11;11.57;65.06
79315;DHT22;68777;44.804;0.552;2023-04-06T02:52:36;11.51;65.09
79315;DHT22;68777;44.804;0.552;2023-04-06T02:55:02;11.46;65.08
79315;DHT22;68777;44.804;0.552;2023-04-06T02:57:27;11.43;64.87
79315;DHT22;68777;44.804;0.552;2023-04-06T02:59:53;11.42;64.53
79315;DHT22;68777;44.804;0.552;2023-04-06T03:02:18;11.49;65.14
79315;DHT22;68777;44.804;0.552;2023-04-06T03:04:44;11.45;65.61
79315;DHT22;68777;44.804;0.552;2023-04-06T03:07:10;11.49;66.31
79315;DHT22;68777;44.804;0.552;2023-04-06T03:09:37;11.46;65.80
79315;DHT22;68777;44.804;0.552;2023-04-06T03:12:03;11.49;65.72
79315;DHT22;68777;44.804;0.552;2023-04-06T03:14:28;11.55;65.60
79315;DHT22;68777;44.804;0.552;2023-04-06T03:16:53;11.63;65.41
79315;DHT22;68777;44.804;0.552;2023-04-06T03:19:19;11.59;64.61
79315;DHT22;68777;44.804;0.552;2023-04-06T03:21:44;11.73;64.63
79315;DHT22;68777;44.804;0.552;2023-04-06T03:24:10;11.70;65.58
79315;DHT22;68777;44.804;0.552;2023-04-06T03:26:36;11.73;65.09
79315;DHT22;68777;44.804;0.552;2023-04-06T03:29:02;11.59;66.06
79315;DHT22;68777;44.804;0.552;2023-04-06T03:31:28;11.49;65.89
79315;DHT22;68777;44.804;0.552;2023-04-06T03:33:53;11.43;66.14
79315;DHT22;68777;44.804;0.552;2023-04-06T03:36:19;11.38;66.29
79315;DHT22;68777;44.804;0.552;2023-04-06T03:38:44;11.35;66.48
79315;DHT22;68777;44.804;0.552;2023-04-06T03:41:10;11.21;66.76
79315;DHT22;68777;44.804;0.552;2023-04-06T03:43:35;11.21;66.89
79315;DHT22;68777;44.804;0.552;2023-04-06T03:46:01;11.22;66.65
79315;DHT22;68777;44.804;0.552;2023-04-06T03:48:26;11.17;66.90
79315;DHT22;68777;44.804;0.552;2023-04-06T03:50:51;11.10;66.21
79315;DHT22;68777;44.804;0.552;2023-04-06T03:53:17;11.06;66.27
79315;DHT22;68777;44.804;0.552;2023-04-06T03:55:42;10.93;66.18
79315;DHT22;68777;44.804;0.552;2023-04-06T03:58:08;10.80;66.55
79315;DHT22;68777;44.804;0.552;2023-04-06T04:00:33;10.80;66.41
79315;DHT22;68777;44.804;0.552;2023-04-06T04:02:58;10.83;66.49
79315;DHT22;68777;44.804;0.552;2023-04-06T04:05:24;10.74;66.73
79315;DHT22;68777;44.804;0.552;2023-04-06T04:07:51;10.83;66.48
79315;DHT22;68777;44.804;0.552;2023-04-06T04:10:17;10.93;66.13
79315;DHT22;68777;44.804;0.552;2023-04-06T04:12:42;11.01;65.93
79315;DHT22;68777;44.804;0.552;2023-04-06T04:15:08;11.07;65.98
79315;DHT22;68777;44.804;0.552;2023-04-06T04:17:33;11.00;66.22
79315;DHT22;68777;44.804;0.552;2023-04-06T04:19:59;11.01;66.07
79315;DHT22;68777;44.804;0.552;2023-04-06T04:22:25;10.96;66.09
79315;DHT22;68777;44.804;0.552;2023-04-06T04:24:50;10.93;66.38
79315;DHT22;68777;44.804;0.552;2023-04-06T04:27:16;10.91;66.49
79315;DHT22;68777;44.804;0.552;2023-04-06T04:29:41;10.83;66.71
79315;DHT22;68777;44.804;0.552;2023-04-06T04:32:09;10.78;66.96
79315;DHT22;68777;44.804;0.552;2023-04-06T04:34:34;10.78;67.18
79315;DHT22;68777;44.804;0.552;2023-04-06T04:37:00;10.80;67.23
79315;DHT22;68777;44.804;0.552;2023-04-06T04:39:25;10.83;66.99
79315;DHT22;68777;44.804;0.552;2023-04-06T04:41:51;10.90;66.92
79315;DHT22;68777;44.804;0.552;2023-04-06T04:44:16;11.06;66.61
79315;DHT22;68777;44.804;0.552;2023-04-06T04:46:42;11.04;66.41
79315;DHT22;68777;44.804;0.552;2023-04-06T04:49:07;10.96;66.63
79315;DHT22;68777;44.804;0.552;2023-04-06T04:51:33;11.00;66.54
79315;DHT22;68777;44.804;0.552;2023-04-06T04:53:58;11.03;66.60
79315;DHT22;68777;44.804;0.552;2023-04-06T04:56:24;11.01;66.33
79315;DHT22;68777;44.804;0.552;2023-04-06T04:58:50;11.10;66.40
79315;DHT22;68777;44.804;0.552;2023-04-06T05:01:16;11.04;66.14
79315;DHT22;68777;44.804;0.552;2023-04-06T05:03:41;11.00;66.06
79315;DHT22;68777;44.804;0.552;2023-04-06T05:06:06;11.08;66.04
79315;DHT22;68777;44.804;0.552;2023-04-06T05:08:32;11.18;65.66
79315;DHT22;68777;44.804;0.552;2023-04-06T05:10:58;11.25;65.37
79315;DHT22;68777;44.804;0.552;2023-04-06T05:13:24;11.21;65.81
79315;DHT22;68777;44.804;0.552;2023-04-06T05:15:49;11.21;65.64
79315;DHT22;68777;44.804;0.552;2023-04-06T05:18:15;11.17;65.80
79315;DHT22;68777;44.804;0.552;2023-04-06T05:20:40;11.17;65.64
79315;DHT22;68777;44.804;0.552;2023-04-06T05:23:06;11.17;65.95
79315;DHT22;68777;44.804;0.552;2023-04-06T05:25:32;11.25;65.61
79315;DHT22;68777;44.804;0.552;2023-04-06T05:27:57;11.28;65.56
79315;DHT22;68777;44.804;0.552;2023-04-06T05:30:23;11.31;65.63
79315;DHT22;68777;44.804;0.552;2023-04-06T05:32:49;11.27;66.03
79315;DHT22;68777;44.804;0.552;2023-04-06T05:35:15;11.17;65.98
79315;DHT22;68777;44.804;0.552;2023-04-06T05:37:42;11.15;66.36
79315;DHT22;68777;44.804;0.552;2023-04-06T05:40:08;11.17;66.03
79315;DHT22;68777;44.804;0.552;2023-04-06T05:42:37;11.17;65.95
79315;DHT22;68777;44.804;0.552;2023-04-06T05:45:04;11.14;65.97
79315;DHT22;68777;44.804;0.552;2023-04-06T05:47:30;11.19;65.76
79315;DHT22;68777;44.804;0.552;2023-04-06T05:49:55;11.22;66.27
79315;DHT22;68777;44.804;0.552;2023-04-06T05:52:21;11.19;66.64
79315;DHT22;68777;44.804;0.552;2023-04-06T05:54:47;11.18;66.15
79315;DHT22;68777;44.804;0.552;2023-04-06T05:57:12;11.17;66.91
79315;DHT22;68777;44.804;0.552;2023-04-06T05:59:37;11.11;66.32
79315;DHT22;68777;44.804;0.552;2023-04-06T06:02:03;11.03;66.52
79315;DHT22;68777;44.804;0.552;2023-04-06T06:04:28;10.94;66.63
79315;DHT22;68777;44.804;0.552;2023-04-06T06:06:54;10.91;67.09
79315;DHT22;68777;44.804;0.552;2023-04-06T06:09:20;10.88;66.54
79315;DHT22;68777;44.804;0.552;2023-04-06T06:11:45;10.91;66.54
79315;DHT22;68777;44.804;0.552;2023-04-06T06:14:11;10.94;66.52
79315;DHT22;68777;44.804;0.552;2023-04-06T06:16:36;11.01;66.47
79315;DHT22;68777;44.804;0.552;2023-04-06T06:19:02;11.03;66.24
79315;DHT22;68777;44.804;0.552;2023-04-06T06:21:27;10.98;66.51
79315;DHT22;68777;44.804;0.552;2023-04-06T06:23:52;10.98;66.41
79315;DHT22;68777;44.804;0.552;2023-04-06T06:26:19;10.80;66.91
79315;DHT22;68777;44.804;0.552;2023-04-06T06:28:45;10.70;67.17
79315;DHT22;68777;44.804;0.552;2023-04-06T06:31:10;10.63;67.26
79315;DHT22;68777;44.804;0.552;2023-04-06T06:33:36;10.57;67.38
79315;DHT22;68777;44.804;0.552;2023-04-06T06:36:01;10.70;67.21
79315;DHT22;68777;44.804;0.552;2023-04-06T06:38:27;10.81;66.89
79315;DHT22;68777;44.804;0.552;2023-04-06T06:40:52;10.97;66.62
79315;DHT22;68777;44.804;0.552;2023-04-06T06:43:18;11.11;66.51
79315;DHT22;68777;44.804;0.552;2023-04-06T06:45:43;11.25;65.99
79315;DHT22;68777;44.804;0.552;2023-04-06T06:48:09;11.10;66.36
79315;DHT22;68777;44.804;0.552;2023-04-06T06:50:35;11.22;66.14
79315;DHT22;68777;44.804;0.552;2023-04-06T06:53:00;11.58;65.71
79315;DHT22;68777;44.804;0.552;2023-04-06T06:55:26;12.10;64.69
79315;DHT22;68777;44.804;0.552;2023-04-06T06:57:52;12.27;63.32
79315;DHT22;68777;44.804;0.552;2023-04-06T07:00:18;11.97;63.95
79315;DHT22;68777;44.804;0.552;2023-04-06T07:02:45;12.03;64.08
79315;DHT22;68777;44.804;0.552;2023-04-06T07:05:10;12.34;63.33
79315;DHT22;68777;44.804;0.552;2023-04-06T07:07:36;12.65;62.29
79315;DHT22;68777;44.804;0.552;2023-04-06T07:10:02;13.06;61.67
79315;DHT22;68777;44.804;0.552;2023-04-06T07:12:27;13.14;60.85
79315;DHT22;68777;44.804;0.552;2023-04-06T07:14:53;12.88;61.00
79315;DHT22;68777;44.804;0.552;2023-04-06T07:17:18;12.54;62.11
79315;DHT22;68777;44.804;0.552;2023-04-06T07:19:44;12.85;61.74
79315;DHT22;68777;44.804;0.552;2023-04-06T07:22:10;12.89;61.65
79315;DHT22;68777;44.804;0.552;2023-04-06T07:24:35;12.96;61.61
79315;DHT22;68777;44.804;0.552;2023-04-06T07:27:01;12.80;61.87
79315;DHT22;68777;44.804;0.552;2023-04-06T07:29:27;12.95;61.48
79315;DHT22;68777;44.804;0.552;2023-04-06T07:31:53;13.08;61.32
79315;DHT22;68777;44.804;0.552;2023-04-06T07:34:18;13.08;61.03
79315;DHT22;68777;44.804;0.552;2023-04-06T07:36:44;13.08;60.00
79315;DHT22;68777;44.804;0.552;2023-04-06T07:39:09;13.30;60.53
79315;DHT22;68777;44.804;0.552;2023-04-06T07:41:35;13.38;59.26
79315;DHT22;68777;44.804;0.552;2023-04-06T07:44:01;13.43;59.49
79315;DHT22;68777;44.804;0.552;2023-04-06T07:46:26;13.63;58.91
79315;DHT22;68777;44.804;0.552;2023-04-06T07:48:52;13.65;59.56
79315;DHT22;68777;44.804;0.552;2023-04-06T07:51:17;13.71;58.62
79315;DHT22;68777;44.804;0.552;2023-04-06T07:53:44;13.71;58.43
79315;DHT22;68777;44.804;0.552;2023-04-06T07:56:09;13.86;58.79
79315;DHT22;68777;44.804;0.552;2023-04-06T07:58:35;13.91;58.15
79315;DHT22;68777;44.804;0.552;2023-04-06T08:01:01;14.25;57.68
79315;DHT22;68777;44.804;0.552;2023-04-06T08:03:27;14.46;56.98
79315;DHT22;68777;44.804;0.552;2023-04-06T08:05:53;14.21;56.08
79315;DHT22;68777;44.804;0.552;2023-04-06T08:08:19;14.69;55.39
79315;DHT22;68777;44.804;0.552;2023-04-06T08:10:46;14.95;54.50
79315;DHT22;68777;44.804;0.552;2023-04-06T08:13:12;15.32;52.46
79315;DHT22;68777;44.804;0.552;2023-04-06T08:15:37;15.61;52.67
79315;DHT22;68777;44.804;0.552;2023-04-06T08:18:03;15.85;51.98
79315;DHT22;68777;44.804;0.552;2023-04-06T08:20:28;15.88;50.09
79315;DHT22;68777;44.804;0.552;2023-04-06T08:22:54;15.32;48.76
79315;DHT22;68777;44.804;0.552;2023-04-06T08:25:19;15.64;49.47
79315;DHT22;68777;44.804;0.552;2023-04-06T08:27:44;15.80;50.31
79315;DHT22;68777;44.804;0.552;2023-04-06T08:30:10;15.95;48.26
79315;DHT22;68777;44.804;0.552;2023-04-06T08:32:35;16.09;46.86
79315;DHT22;68777;44.804;0.552;2023-04-06T08:35:01;16.22;46.96
79315;DHT22;68777;44.804;0.552;2023-04-06T08:37:26;16.39;45.95
79315;DHT22;68777;44.804;0.552;2023-04-06T08:39:52;16.42;46.85
79315;DHT22;68777;44.804;0.552;2023-04-06T08:42:21;16.26;46.89
79315;DHT22;68777;44.804;0.552;2023-04-06T08:44:50;16.38;44.58
79315;DHT22;68777;44.804;0.552;2023-04-06T08:47:19;16.17;42.21
79315;DHT22;68777;44.804;0.552;2023-04-06T08:49:45;16.12;44.53
79315;DHT22;68777;44.804;0.552;2023-04-06T08:52:11;16.28;41.90
79315;DHT22;68777;44.804;0.552;2023-04-06T08:54:38;16.35;40.16
79315;DHT22;68777;44.804;0.552;2023-04-06T08:57:04;16.28;39.14
79315;DHT22;68777;44.804;0.552;2023-04-06T08:59:31;16.26;40.52
79315;DHT22;68777;44.804;0.552;2023-04-06T09:01:56;16.33;39.73
79315;DHT22;68777;44.804;0.552;2023-04-06T09:04:22;16.52;38.67
79315;DHT22;68777;44.804;0.552;2023-04-06T09:06:48;16.60;38.64
79315;DHT22;68777;44.804;0.552;2023-04-06T09:09:15;16.72;37.86
79315;DHT22;68777;44.804;0.552;2023-04-06T09:11:44;16.68;39.09
79315;DHT22;68777;44.804;0.552;2023-04-06T09:14:10;16.63;39.05
79315;DHT22;68777;44.804;0.552;2023-04-06T09:16:44;16.62;37.92
79315;DHT22;68777;44.804;0.552;2023-04-06T09:19:11;16.81;39.16
79315;DHT22;68777;44.804;0.552;2023-04-06T09:21:38;16.94;38.00
79315;DHT22;68777;44.804;0.552;2023-04-06T09:24:09;16.68;33.92
79315;DHT22;68777;44.804;0.552;2023-04-06T09:26:47;16.66;33.73
79315;DHT22;68777;44.804;0.552;2023-04-06T09:29:23;16.93;36.65
79315;DHT22;68777;44.804;0.552;2023-04-06T09:31:51;16.79;34.53
79315;DHT22;68777;44.804;0.552;2023-04-06T09:34:22;16.76;36.18
79315;DHT22;68777;44.804;0.552;2023-04-06T09:36:49;17.02;37.44
79315;DHT22;68777;44.804;0.552;2023-04-06T09:39:14;16.87;34.68
79315;DHT22;68777;44.804;0.552;2023-04-06T09:41:40;17.03;35.26
79315;DHT22;68777;44.804;0.552;2023-04-06T09:44:10;17.34;35.45
79315;DHT22;68777;44.804;0.552;2023-04-06T09:46:46;17.23;34.63
79315;DHT22;68777;44.804;0.552;2023-04-06T09:49:13;17.47;35.59
79315;DHT22;68777;44.804;0.552;2023-04-06T09:51:54;17.48;34.37
79315;DHT22;68777;44.804;0.552;2023-04-06T09:54:23;17.52;34.50
79315;DHT22;68777;44.804;0.552;2023-04-06T10:02:08;17.34;31.10
79315;DHT22;68777;44.804;0.552;2023-04-06T10:04:50;17.61;30.61
79315;DHT22;68777;44.804;0.552;2023-04-06T10:07:18;17.57;30.08
79315;DHT22;68777;44.804;0.552;2023-04-06T10:09:46;17.58;32.12
79315;DHT22;68777;44.804;0.552;2023-04-06T10:12:12;17.68;32.72
79315;DHT22;68777;44.804;0.552;2023-04-06T10:14:38;17.58;32.32
79315;DHT22;68777;44.804;0.552;2023-04-06T10:17:04;17.71;33.72
79315;DHT22;68777;44.804;0.552;2023-04-06T10:19:55;17.91;36.96
79315;DHT22;68777;44.804;0.552;2023-04-06T10:22:49;17.93;30.68
79315;DHT22;68777;44.804;0.552;2023-04-06T10:25:31;18.02;32.16
79315;DHT22;68777;44.804;0.552;2023-04-06T10:30:26;17.54;26.54
79315;DHT22;68777;44.804;0.552;2023-04-06T10:32:53;17.60;26.69
79315;DHT22;68777;44.804;0.552;2023-04-06T10:35:18;17.85;28.57
79315;DHT22;68777;44.804;0.552;2023-04-06T10:40:22;17.95;29.43
79315;DHT22;68777;44.804;0.552;2023-04-06T10:42:48;18.22;29.69
79315;DHT22;68777;44.804;0.552;2023-04-06T10:45:24;18.36;30.68
79315;DHT22;68777;44.804;0.552;2023-04-06T10:47:52;18.23;27.61
79315;DHT22;68777;44.804;0.552;2023-04-06T10:50:18;18.19;27.10
79315;DHT22;68777;44.804;0.552;2023-04-06T10:52:45;18.15;27.64
79315;DHT22;68777;44.804;0.552;2023-04-06T10:55:13;18.37;27.84
79315;DHT22;68777;44.804;0.552;2023-04-06T10:57:40;18.46;27.72
79315;DHT22;68777;44.804;0.552;2023-04-06T11:00:06;18.71;28.31
79315;DHT22;68777;44.804;0.552;2023-04-06T11:02:34;18.80;27.28
79315;DHT22;68777;44.804;0.552;2023-04-06T11:05:00;18.84;27.49
79315;DHT22;68777;44.804;0.552;2023-04-06T11:07:26;18.90;29.64
79315;DHT22;68777;44.804;0.552;2023-04-06T11:09:52;19.00;32.17
79315;DHT22;68777;44.804;0.552;2023-04-06T11:12:26;19.08;31.70
79315;DHT22;68777;44.804;0.552;2023-04-06T11:14:58;18.96;27.75
79315;DHT22;68777;44.804;0.552;2023-04-06T11:17:35;19.01;27.34
79315;DHT22;68777;44.804;0.552;2023-04-06T11:20:05;19.10;27.71
79315;DHT22;68777;44.804;0.552;2023-04-06T11:22:34;19.24;28.03
79315;DHT22;68777;44.804;0.552;2023-04-06T11:25:07;19.36;28.34
79315;DHT22;68777;44.804;0.552;2023-04-06T11:27:34;19.41;26.47
79315;DHT22;68777;44.804;0.552;2023-04-06T11:30:00;19.34;28.85
79315;DHT22;68777;44.804;0.552;2023-04-06T11:32:26;19.45;26.27
79315;DHT22;68777;44.804;0.552;2023-04-06T11:34:51;19.62;27.19
79315;DHT22;68777;44.804;0.552;2023-04-06T11:37:17;19.73;27.66
79315;DHT22;68777;44.804;0.552;2023-04-06T11:39:51;19.55;25.52
79315;DHT22;68777;44.804;0.552;2023-04-06T11:42:24;19.49;25.91
79315;DHT22;68777;44.804;0.552;2023-04-06T11:44:54;19.25;25.05
79315;DHT22;68777;44.804;0.552;2023-04-06T11:47:27;19.29;26.26
79315;DHT22;68777;44.804;0.552;2023-04-06T11:49:53;19.48;26.25
79315;DHT22;68777;44.804;0.552;2023-04-06T11:52:26;19.70;26.75
79315;DHT22;68777;44.804;0.552;2023-04-06T11:54:53;19.73;26.16
79315;DHT22;68777;44.804;0.552;2023-04-06T11:57:20;20.16;26.31
79315;DHT22;68777;44.804;0.552;2023-04-06T11:59:46;20.24;26.87
79315;DHT22;68777;44.804;0.552;2023-04-06T12:02:12;20.34;26.70
79315;DHT22;68777;44.804;0.552;2023-04-06T12:04:38;20.43;27.28
79315;DHT22;68777;44.804;0.552;2023-04-06T12:07:04;20.27;24.65
79315;DHT22;68777;44.804;0.552;2023-04-06T12:09:30;20.27;24.63
79315;DHT22;68777;44.804;0.552;2023-04-06T12:11:56;20.34;24.04
79315;DHT22;68777;44.804;0.552;2023-04-06T12:14:21;20.16;24.07
79315;DHT22;68777;44.804;0.552;2023-04-06T12:16:47;20.39;26.53
79315;DHT22;68777;44.804;0.552;2023-04-06T12:19:12;20.71;25.86
79315;DHT22;68777;44.804;0.552;2023-04-06T12:21:38;20.92;24.25
79315;DHT22;68777;44.804;0.552;2023-04-06T12:24:04;20.80;24.43
79315;DHT22;68777;44.804;0.552;2023-04-06T12:26:30;20.65;25.13
79315;DHT22;68777;44.804;0.552;2023-04-06T12:28:56;20.88;25.89
79315;DHT22;68777;44.804;0.552;2023-04-06T12:31:22;21.05;26.06
79315;DHT22;68777;44.804;0.552;2023-04-06T12:33:51;20.78;27.19
79315;DHT22;68777;44.804;0.552;2023-04-06T12:36:19;20.68;28.08
79315;DHT22;68777;44.804;0.552;2023-04-06T12:38:47;20.70;26.55
79315;DHT22;68777;44.804;0.552;2023-04-06T12:41:13;20.71;25.18
79315;DHT22;68777;44.804;0.552;2023-04-06T12:43:42;20.63;26.94
79315;DHT22;68777;44.804;0.552;2023-04-06T12:46:08;20.55;24.96
79315;DHT22;68777;44.804;0.552;2023-04-06T12:48:34;20.71;28.26
79315;DHT22;68777;44.804;0.552;2023-04-06T12:51:03;20.94;25.90
79315;DHT22;68777;44.804;0.552;2023-04-06T12:53:29;20.67;26.14
79315;DHT22;68777;44.804;0.552;2023-04-06T12:55:55;20.96;26.67
79315;DHT22;68777;44.804;0.552;2023-04-06T12:58:22;21.24;27.47
79315;DHT22;68777;44.804;0.552;2023-04-06T13:00:49;21.11;25.03
79315;DHT22;68777;44.804;0.552;2023-04-06T13:03:15;20.63;25.55
79315;DHT22;68777;44.804;0.552;2023-04-06T13:05:47;20.71;25.48
79315;DHT22;68777;44.804;0.552;2023-04-06T13:08:13;20.73;24.66
79315;DHT22;68777;44.804;0.552;2023-04-06T13:10:50;20.98;26.45
79315;DHT22;68777;44.804;0.552;2023-04-06T13:13:23;21.34;26.76
79315;DHT22;68777;44.804;0.552;2023-04-06T13:15:50;21.47;25.99
79315;DHT22;68777;44.804;0.552;2023-04-06T13:18:16;21.31;25.74
79315;DHT22;68777;44.804;0.552;2023-04-06T13:20:42;21.38;25.67
79315;DHT22;68777;44.804;0.552;2023-04-06T13:23:08;21.49;27.85
79315;DHT22;68777;44.804;0.552;2023-04-06T13:25:34;21.72;26.14
79315;DHT22;68777;44.804;0.552;2023-04-06T13:27:59;21.62;24.25
79315;DHT22;68777;44.804;0.552;2023-04-06T13:30:25;21.50;24.67
79315;DHT22;68777;44.804;0.552;2023-04-06T13:32:51;21.41;25.50
79315;DHT22;68777;44.804;0.552;2023-04-06T13:35:16;21.76;28.79
79315;DHT22;68777;44.804;0.552;2023-04-06T13:37:43;21.96;27.63
79315;DHT22;68777;44.804;0.552;2023-04-06T13:40:09;21.90;24.87
79315;DHT22;68777;44.804;0.552;2023-04-06T13:42:35;22.00;24.53
79315;DHT22;68777;44.804;0.552;2023-04-06T13:45:02;21.82;24.42
79315;DHT22;68777;44.804;0.552;2023-04-06T13:47:27;21.90;23.82
79315;DHT22;68777;44.804;0.552;2023-04-06T13:49:53;21.76;24.36
79315;DHT22;68777;44.804;0.552;2023-04-06T13:52:20;21.52;24.53
79315;DHT22;68777;44.804;0.552;2023-04-06T13:54:45;21.86;24.39
79315;DHT22;68777;44.804;0.552;2023-04-06T13:57:11;21.29;24.27
79315;DHT22;68777;44.804;0.552;2023-04-06T13:59:38;21.32;25.14
79315;DHT22;68777;44.804;0.552;2023-04-06T14:02:05;21.90;25.04
79315;DHT22;68777;44.804;0.552;2023-04-06T14:04:31;21.80;23.16
79315;DHT22;68777;44.804;0.552;2023-04-06T14:06:57;21.97;25.55
79315;DHT22;68777;44.804;0.552;2023-04-06T14:09:23;22.06;23.40
79315;DHT22;68777;44.804;0.552;2023-04-06T14:11:49;22.07;23.41
79315;DHT22;68777;44.804;0.552;2023-04-06T14:14:15;22.34;24.06
79315;DHT22;68777;44.804;0.552;2023-04-06T14:16:40;21.96;25.89
79315;DHT22;68777;44.804;0.552;2023-04-06T14:19:09;22.25;26.76
79315;DHT22;68777;44.804;0.552;2023-04-06T14:21:35;22.47;25.87
79315;DHT22;68777;44.804;0.552;2023-04-06T14:24:00;22.34;26.12
79315;DHT22;68777;44.804;0.552;2023-04-06T14:26:26;22.11;25.16
79315;DHT22;68777;44.804;0.552;2023-04-06T14:28:52;21.66;26.17
79315;DHT22;68777;44.804;0.552;2023-04-06T14:31:17;21.79;26.24
79315;DHT22;68777;44.804;0.552;2023-04-06T14:33:43;21.97;24.57
79315;DHT22;68777;44.804;0.552;2023-04-06T14:36:09;22.11;25.84
79315;DHT22;68777;44.804;0.552;2023-04-06T14:38:34;22.48;25.63
79315;DHT22;68777;44.804;0.552;2023-04-06T14:41:00;22.64;25.75
79315;DHT22;68777;44.804;0.552;2023-04-06T14:43:26;22.82;26.10
79315;DHT22;68777;44.804;0.552;2023-04-06T14:45:52;22.92;24.35
79315;DHT22;68777;44.804;0.552;2023-04-06T14:48:17;22.51;24.47
79315;DHT22;68777;44.804;0.552;2023-04-06T14:50:53;22.20;24.48
79315;DHT22;68777;44.804;0.552;2023-04-06T14:53:20;22.60;24.76
79315;DHT22;68777;44.804;0.552;2023-04-06T14:55:45;22.48;23.67
79315;DHT22;68777;44.804;0.552;2023-04-06T14:58:11;22.79;24.76
79315;DHT22;68777;44.804;0.552;2023-04-06T15:00:37;22.34;23.27
79315;DHT22;68777;44.804;0.552;2023-04-06T15:03:03;21.92;23.91
79315;DHT22;68777;44.804;0.552;2023-04-06T15:05:29;21.92;24.52
79315;DHT22;68777;44.804;0.552;2023-04-06T15:07:55;22.21;20.51
79315;DHT22;68777;44.804;0.552;2023-04-06T15:10:21;22.01;20.19
79315;DHT22;68777;44.804;0.552;2023-04-06T15:12:46;21.72;18.90
79315;DHT22;68777;44.804;0.552;2023-04-06T15:15:11;21.76;18.43
79315;DHT22;68777;44.804;0.552;2023-04-06T15:17:37;22.01;18.84
79315;DHT22;68777;44.804;0.552;2023-04-06T15:20:03;22.33;19.20
79315;DHT22;68777;44.804;0.552;2023-04-06T15:22:28;22.47;17.99
79315;DHT22;68777;44.804;0.552;2023-04-06T15:24:53;21.73;18.13
79315;DHT22;68777;44.804;0.552;2023-04-06T15:27:19;22.18;17.99
79315;DHT22;68777;44.804;0.552;2023-04-06T15:29:45;21.90;18.44
79315;DHT22;68777;44.804;0.552;2023-04-06T15:32:11;22.06;18.33
79315;DHT22;68777;44.804;0.552;2023-04-06T15:34:37;22.14;18.37